Vught, Netherlands
Current Conditions -  °F | °C
As of 8:33 PM on Friday 21 Nov 2014 (Local Time) from EHEH Reporting Station
Haze Haze  
Wind Chill: 39°   Ceiling: 13000
Heat Index: 43°   Visibility: 2.1mi
Dew Point: 37°   Wind: 7mph
Humidity: 81%   Direction: 90°E
Pressure: 30.09"   Gusts: NA
Location:  51.65°N, 5.29°E
Report Text: EHEH 211933Z AUTO 09006KT 3400 R03/P3000 HZ OVC130 06/03 Q1019 YLO 08007KT CAVOK BECMG 5000
Loading
Personal Weather Stations






























Interactive Weather Map New forecast layout! Learn more

10-Day Weather Forecast

Advertisements
Track Severe Weather on mobile